KDMO/DMO METAR and TAF weather

Enter ICAO airport designator
Station Type Date Time Source
KDMO METAR 2018/06/25 16:53 UTC NOAA

KDMO 251653Z AUTO 17007KT 10SM SCT025 BKN032 OVC039 28/22 A2994 RMK AO2 SLP129 T02780217


Station Type Date Time Source
KDMO Decoded METAR 2018/06/25 16:53 UTC NOAA

SEDALIA MEMORIAL AIRPORT, MO, United States (KDMO) 38-43N 93-10W 274M
Jun 25, 2018 - 12:53 PM EDT / 2018.06.25 1653 UTC
Wind: from the S (170 degrees) at 8 MPH (7 KT):0
Visibility: 10 mile(s):0
Sky conditions: overcast
Temperature: 82.0 F (27.8 C)
Dew Point: 71.1 F (21.7 C)
Relative Humidity: 69%
Pressure (altimeter): 29.94 in. Hg (1013 hPa)
ob: KDMO 251653Z AUTO 17007KT 10SM SCT025 BKN032 OVC039 28/22 A2994 RMK AO2 SLP129 T02780217
cycle: 17

Station Type Date Time Source
KDMO TAF UTC NOAA

Error!


Example: see airport list